• Join FlightAware (Why Join?)
  • Login
  • US Flag 
02:30AM EDT


 

Airport Tracker/Info


-or-


 

Live Flight TrackerFlight Track Log ✈ DAL1810 ✈ 01-Jul-2012 ✈ KDFW - KATL

Flight Track Log - Related Links

Times and Time Zones

All times are in EDT time to prevent confusion due to time zone crossing. See the DAL1810 flight status page for this flight to view local times or setup timezone preferences in your user account.

Time Position Orientation Groundspeed Altitude Reporting Facility
EDT Latitude Longitude Course Direction KTS MPH feet Rate Location/Type
07:40PM 32.8844 -97.0303 168° South 152 175 1,700  Level FAA TRACON SMA TRACON (SMA)
07:41PM 32.8483 -97.0208 166° South 202 232 2,900 2,340 Climbing FAA TRACON SMA TRACON (SMA)
07:41PM 32.8036 -97.0081 139° Southeast 242 278 4,900 3,060 Climbing FAA TRACON SMA TRACON (SMA)
07:42PM 32.7656 -96.9681 124° Southeast 278 320 7,000 3,180 Climbing FAA TRACON SMA TRACON (SMA)
07:43PM 32.7378 -96.9194 123° Southeast 288 331 9,100 2,220 Climbing FAA TRACON SMA TRACON (SMA)
07:43PM 32.7069 -96.8633 102° East 295 339 10,000 660 Climbing FAA TRACON SMA TRACON (SMA)
07:44PM 32.6956 -96.7983 75° East 307 353 10,000 360 Level FAA TRACON SMA TRACON (SMA)
07:45PM 32.7114 -96.7297 75° East 312 359 10,500 1,860 Climbing FAA TRACON SMA TRACON (SMA)
07:45PM 32.7275 -96.6597 75° East 317 365 12,600 2,460 Climbing FAA TRACON SMA TRACON (SMA)
07:46PM 32.7419 -96.5950 75° East 330 380 13,900 2,100 Climbing FAA TRACON SMA TRACON (SMA)
07:47PM 32.7594 -96.5156 77° East 361 415 15,400 2,220 Climbing FAA TRACON SMA TRACON (SMA)
07:47PM 32.7742 -96.4408 87° East 379 436 16,900 2,400 Climbing FAA TRACON SMA TRACON (SMA)
07:48PM 32.7786 -96.3514 91° East 393 452 18,600 2,520 Climbing FAA TRACON SMA TRACON (SMA)
07:49PM 32.7772 -96.2611 93° East 397 457 20,300 2,100 Climbing FAA TRACON SMA TRACON (SMA)
07:49PM 32.7742 -96.1792 92° East 405 466 21,500 1,920 Climbing FAA TRACON SMA TRACON (SMA)
07:50PM 32.7711 -96.0739 91° East 417 480 23,000 1,620 Climbing FAA TRACON SMA TRACON (SMA)
07:51PM 32.7694 -95.9864 92° East 431 496 23,700 900 Climbing FAA TRACON SMA TRACON (SMA)
07:51PM 32.7672 -95.8947 92° East 455 524 24,200 1,080 Climbing FAA TRACON SMA TRACON (SMA)
07:52PM 32.7619 -95.7458 92° East 459 528 25,600 1,560 Climbing Fort Worth Center
07:53PM 32.7575 -95.5928 92° East 465 535 27,400 1,500 Climbing Fort Worth Center
07:54PM 32.7531 -95.4347 93° East 465 535 28,700 1,260 Climbing Fort Worth Center
07:55PM 32.7442 -95.2622 93° East 465 535 30,000 1,380 Climbing Fort Worth Center
07:56PM 32.7372 -95.1092 91° East 465 535 31,500 1,260 Climbing Fort Worth Center
07:57PM 32.7342 -94.9536 93° East 465 535 32,500 1,020 Climbing Fort Worth Center
07:58PM 32.7269 -94.8008 92° East 465 535 33,600 1,020 Climbing Fort Worth Center
07:59PM 32.7217 -94.6478 92° East 465 535 34,600 660 Climbing Fort Worth Center
08:00PM 32.7161 -94.4950 93° East 460 529 35,000 180 Climbing Fort Worth Center
08:01PM 32.7103 -94.3419 92° East 460 529 35,000  Level Fort Worth Center
08:02PM 32.7064 -94.1892 93° East 460 529 35,000  Level Fort Worth Center
08:03PM 32.7003 -94.0339 94° East 460 529 35,000  Level Fort Worth Center
08:04PM 32.6919 -93.8786 91° East 460 529 35,000  Level Fort Worth Center
08:05PM 32.6900 -93.7381 94° East 460 529 35,000  Level Fort Worth Center
08:06PM 32.6814 -93.5878 92° East 460 529 35,000  Level Fort Worth Center
08:07PM 32.6764 -93.4325 93° East 460 529 35,000  Level Fort Worth Center
08:08PM 32.6694 -93.2775 92° East 460 529 35,000  Level Fort Worth Center
08:09PM 32.6642 -93.1247 93° East 460 529 35,000  Level Fort Worth Center
08:10PM 32.6569 -92.9744 87° East 460 529 35,000  Level Fort Worth Center
08:11PM 32.6639 -92.8211 81° East 460 529 35,000  Level Fort Worth Center
08:12PM 32.6833 -92.6697 78° East 460 529 35,000  Level Fort Worth Center
08:13PM 32.7092 -92.5228 80° East 460 529 35,000  Level Fort Worth Center
08:14PM 32.7306 -92.3758 74° East 455 524 35,000  Level Fort Worth Center
08:15PM 32.7664 -92.2306 73° East 450 518 35,000  Level Fort Worth Center
08:17PM 32.8306 -91.9842 69° East 460 529 35,000  Level Memphis Center
08:18PM 32.8761 -91.8414 66° East 460 529 35,000  Level Memphis Center
08:19PM 32.9278 -91.7061 66° East 460 529 35,000  Level Memphis Center
08:20PM 32.9792 -91.5683 73° East 450 518 35,000  Level Memphis Center
08:21PM 33.0161 -91.4225 92° East 450 518 35,000  Level Memphis Center
08:22PM 33.0111 -91.2689 96° East 450 518 35,000  Level Memphis Center
08:23PM 32.9975 -91.1153 96° East 450 518 35,000  Level Memphis Center
08:24PM 32.9856 -90.9739 96° East 467 537 35,000  Level Memphis Center
08:25PM 32.9717 -90.8203 95° East 472 543 35,000  Level Memphis Center
08:26PM 32.9597 -90.6692 95° East 467 537 35,000  Level Memphis Center
08:27PM 32.9475 -90.5133 95° East 467 537 35,000  Level Memphis Center
08:28PM 32.9369 -90.3597 96° East 462 532 35,000  Level Memphis Center
08:29PM 32.9222 -90.2039 96° East 462 532 35,000  Level Memphis Center
08:30PM 32.9094 -90.0578 98° East 457 526 35,000  Level Memphis Center
08:31PM 32.8922 -89.9044 94° East 457 526 35,000  Level Memphis Center
08:32PM 32.8833 -89.7439 96° East 480 552 35,000  Level Memphis Center
08:33PM 32.8697 -89.5781 96° East 476 548 35,000  Level Memphis Center
08:34PM 32.8564 -89.4297 96° East 457 526 35,000  Level Memphis Center
08:35PM 32.8425 -89.2792 96° East 452 520 35,000  Level Memphis Center
08:36PM 32.8286 -89.1311 96° East 452 520 35,000  Level Memphis Center
08:37PM 32.8144 -88.9828 97° East 452 520 35,000 -60 Level Memphis Center
08:38PM 32.8003 -88.8372 97° East 452 520 34,900 -960 Descending Memphis Center
08:39PM 32.7858 -88.6892 95° East 441 507 33,100 -960 Descending Memphis Center
08:40PM 32.7758 -88.5536 97° East 451 519 33,000 -60 Descending Memphis Center
08:41PM 32.7611 -88.4081 96° East 451 519 33,000  Level Memphis Center
08:42PM 32.7483 -88.2675 98° East 438 504 33,000  Level Memphis Center
08:44PM 32.7167 -87.9864 97° East 433 498 33,000  Level Atlanta Center
08:45PM 32.7025 -87.8403 97° East 433 498 33,000 -300 Level Atlanta Center
08:46PM 32.6881 -87.6964 97° East 433 498 32,500 -720 Descending Atlanta Center
08:47PM 32.6717 -87.5403 96° East 433 498 31,600 -780 Descending Atlanta Center
08:48PM 32.6589 -87.3967 98° East 433 498 31,000 -300 Descending Atlanta Center
08:49PM 32.6419 -87.2531 96° East 433 498 31,000  Level Atlanta Center
08:50PM 32.6289 -87.1144 98° East 433 498 31,000  Level Atlanta Center
08:51PM 32.6114 -86.9733 98° East 426 490 31,000  Level Atlanta Center
08:52PM 32.5958 -86.8347 124° Southeast 426 490 31,000  Level Atlanta Center
08:53PM 32.5336 -86.7244 180° South 412 474 31,000  Level Atlanta Center
08:54PM 32.4167 -86.7233 233° Southwest 340 391 31,000  Level Atlanta Center
08:55PM 32.3453 -86.8367 250° West 304 350 31,000  Level Atlanta Center
08:56PM 32.3047 -86.9656 269° West 375 432 31,000 -240 Level Atlanta Center
08:57PM 32.3036 -87.0933 289° West 390 449 30,600 -1,440 Descending Atlanta Center
08:58PM 32.3344 -87.2000 295° West 383 441 28,200 -2,280 Descending Atlanta Center
08:59PM 32.3775 -87.3072 345° North 377 434 26,100 -1,140 Descending Atlanta Center
09:00PM 32.4747 -87.3381 56° Northeast 325 374 26,000 -60 Descending Atlanta Center
09:01PM 32.5317 -87.2367 116° Southeast 287 330 26,000  Level Atlanta Center
09:02PM 32.4844 -87.1242 122° Southeast 273 314 26,000 -600 Level Atlanta Center
09:03PM 32.4286 -87.0164 119° Southeast 334 384 24,900 -1,020 Descending Atlanta Center
09:04PM 32.3731 -86.8964 121° Southeast 366 421 24,000 -480 Descending Atlanta Center
09:05PM 32.3192 -86.7892 118° Southeast 382 440 24,000  Level Atlanta Center
09:06PM 32.2794 -86.6994 119° Southeast 375 432 24,000  Level Atlanta Center
09:07PM 32.2275 -86.5900 120° Southeast 370 426 24,000  Level Atlanta Center
09:08PM 32.1753 -86.4828 122° Southeast 365 420 24,000  Level Atlanta Center
09:09PM 32.1108 -86.3633 120° Southeast 382 440 24,000  Level Atlanta Center
09:10PM 32.0567 -86.2542 118° Southeast 394 453 24,000  Level Atlanta Center
09:11PM 32.0064 -86.1428 99° East 388 447 24,000  Level Atlanta Center
09:12PM 31.9933 -86.0419 41° Northeast 355 409 24,000  Level Atlanta Center
09:13PM 32.0719 -85.9606 34° Northeast 302 348 24,000  Level Atlanta Center
09:14PM 32.1606 -85.8889 33° Northeast 316 364 24,000  Level Atlanta Center
09:15PM 32.2472 -85.8217 32° Northeast 340 391 24,000  Level Atlanta Center
09:16PM 32.3378 -85.7547 34° Northeast 364 419 24,000  Level Atlanta Center
09:17PM 32.4222 -85.6875 33° Northeast 379 436 24,000  Level Atlanta Center
09:18PM 32.5089 -85.6203 33° Northeast 373 429 24,000  Level Atlanta Center
09:19PM 32.5953 -85.5528 32° Northeast 368 423 24,000 -840 Level Atlanta Center
09:20PM 32.6817 -85.4875 32° Northeast 368 423 22,400 -1,680 Descending Atlanta Center
09:21PM 32.7658 -85.4247 35° Northeast 363 418 20,700 -2,040 Descending Atlanta Center
09:22PM 32.8481 -85.3567 34° Northeast 358 412 18,400 -2,640 Descending Atlanta Center
09:23PM 32.9342 -85.2886 32° Northeast 359 413 15,500 -2,400 Descending Atlanta Center
09:24PM 33.0119 -85.2303 40° Northeast 364 419 13,600 -1,800 Descending Atlanta Center
09:25PM 33.0942 -85.1472 48° Northeast 364 419 12,000 -840 Descending Atlanta Center
09:26PM 33.1597 -85.0611 42° Northeast 350 403 12,000 -300 Level Atlanta Center
09:27PM 33.2250 -84.9900 30° Northeast 327 376 11,400 -1,080 Descending Atlanta Center
09:28PM 33.2964 -84.9411 24° Northeast 304 350 9,900 -1,680 Descending Atlanta Center
09:29PM 33.3697 -84.9019 North 284 327 8,100 -960 Descending Atlanta Center
09:30PM 33.4406 -84.8978 16° North 278 320 8,000 -180 Descending Atlanta Center
09:31PM 33.5158 -84.8711 22° Northeast 278 320 7,800 -720 Descending Atlanta Center
09:32PM 33.5872 -84.8367 44° Northeast 278 320 6,600 -1,080 Descending Atlanta Center
09:33PM 33.6333 -84.7833 90° East 257 296 6,000 -840 Descending Atlanta TRACON
09:34PM 33.6333 -84.7000 90° East 254 292 5,200 -1,200 Descending Atlanta TRACON
09:35PM 33.6333 -84.6167 90° East 252 290 3,700 -1,320 Descending Atlanta TRACON
09:36PM 33.6333 -84.5500 90° East 206 237 2,600 -960 Descending Atlanta TRACON
09:37PM 33.6333 -84.5000 264° West 154 177 1,800 -840 Descending Atlanta TRACON
09:45PM 33.5437 -85.4527 264° West  Level FlightAware Approximate